sensor_id;sensor_type;location;lat;lon;timestamp;temperature;humidity
50758;DHT22;36732;47.980;11.652;2023-04-06T00:01:42;6.70;43.90
50758;DHT22;36732;47.980;11.652;2023-04-06T00:04:07;6.70;43.90
50758;DHT22;36732;47.980;11.652;2023-04-06T00:06:33;6.70;44.00
50758;DHT22;36732;47.980;11.652;2023-04-06T00:09:00;6.70;44.60
50758;DHT22;36732;47.980;11.652;2023-04-06T00:11:26;6.70;44.10
50758;DHT22;36732;47.980;11.652;2023-04-06T00:13:51;6.70;44.10
50758;DHT22;36732;47.980;11.652;2023-04-06T00:16:18;6.70;44.10
50758;DHT22;36732;47.980;11.652;2023-04-06T00:18:44;6.70;44.10
50758;DHT22;36732;47.980;11.652;2023-04-06T00:21:13;6.60;44.00
50758;DHT22;36732;47.980;11.652;2023-04-06T00:23:40;6.60;44.10
50758;DHT22;36732;47.980;11.652;2023-04-06T00:26:06;6.60;44.10
50758;DHT22;36732;47.980;11.652;2023-04-06T00:28:32;6.60;44.10
50758;DHT22;36732;47.980;11.652;2023-04-06T00:30:58;6.60;44.10
50758;DHT22;36732;47.980;11.652;2023-04-06T00:33:24;6.60;44.20
50758;DHT22;36732;47.980;11.652;2023-04-06T00:35:50;6.60;44.10
50758;DHT22;36732;47.980;11.652;2023-04-06T00:38:16;6.60;44.20
50758;DHT22;36732;47.980;11.652;2023-04-06T00:40:43;6.50;44.10
50758;DHT22;36732;47.980;11.652;2023-04-06T00:43:10;6.50;44.20
50758;DHT22;36732;47.980;11.652;2023-04-06T00:45:38;6.50;44.20
50758;DHT22;36732;47.980;11.652;2023-04-06T00:48:05;6.50;44.20
50758;DHT22;36732;47.980;11.652;2023-04-06T00:50:31;6.50;44.20
50758;DHT22;36732;47.980;11.652;2023-04-06T00:52:58;6.50;44.20
50758;DHT22;36732;47.980;11.652;2023-04-06T00:55:25;6.50;44.20
50758;DHT22;36732;47.980;11.652;2023-04-06T00:57:51;6.40;44.20
50758;DHT22;36732;47.980;11.652;2023-04-06T01:00:17;6.50;44.30
50758;DHT22;36732;47.980;11.652;2023-04-06T01:02:43;6.40;44.30
50758;DHT22;36732;47.980;11.652;2023-04-06T01:05:10;6.40;44.20
50758;DHT22;36732;47.980;11.652;2023-04-06T01:07:36;6.40;44.30
50758;DHT22;36732;47.980;11.652;2023-04-06T01:10:02;6.40;44.30
50758;DHT22;36732;47.980;11.652;2023-04-06T01:12:28;6.40;44.30
50758;DHT22;36732;47.980;11.652;2023-04-06T01:14:54;6.40;44.40
50758;DHT22;36732;47.980;11.652;2023-04-06T01:17:20;6.40;44.40
50758;DHT22;36732;47.980;11.652;2023-04-06T01:19:45;6.30;44.30
50758;DHT22;36732;47.980;11.652;2023-04-06T01:22:16;6.30;44.40
50758;DHT22;36732;47.980;11.652;2023-04-06T01:25:10;6.30;44.40
50758;DHT22;36732;47.980;11.652;2023-04-06T01:27:36;6.30;44.50
50758;DHT22;36732;47.980;11.652;2023-04-06T01:30:02;6.30;44.40
50758;DHT22;36732;47.980;11.652;2023-04-06T01:32:28;6.30;44.40
50758;DHT22;36732;47.980;11.652;2023-04-06T01:34:54;6.30;44.40
50758;DHT22;36732;47.980;11.652;2023-04-06T01:37:20;6.30;44.50
50758;DHT22;36732;47.980;11.652;2023-04-06T01:39:46;6.20;44.50
50758;DHT22;36732;47.980;11.652;2023-04-06T01:42:11;6.20;44.60
50758;DHT22;36732;47.980;11.652;2023-04-06T01:44:37;6.20;44.60
50758;DHT22;36732;47.980;11.652;2023-04-06T01:47:03;6.20;44.60
50758;DHT22;36732;47.980;11.652;2023-04-06T01:49:28;6.20;44.60
50758;DHT22;36732;47.980;11.652;2023-04-06T01:51:54;6.20;44.60
50758;DHT22;36732;47.980;11.652;2023-04-06T01:54:20;6.20;44.60
50758;DHT22;36732;47.980;11.652;2023-04-06T01:56:46;6.20;44.60
50758;DHT22;36732;47.980;11.652;2023-04-06T01:59:12;6.20;44.60
50758;DHT22;36732;47.980;11.652;2023-04-06T02:01:38;6.10;44.50
50758;DHT22;36732;47.980;11.652;2023-04-06T02:04:03;6.10;44.60
50758;DHT22;36732;47.980;11.652;2023-04-06T02:06:29;6.10;44.50
50758;DHT22;36732;47.980;11.652;2023-04-06T02:08:55;6.10;44.50
50758;DHT22;36732;47.980;11.652;2023-04-06T02:11:21;6.10;44.60
50758;DHT22;36732;47.980;11.652;2023-04-06T02:13:47;6.10;44.60
50758;DHT22;36732;47.980;11.652;2023-04-06T02:16:12;6.10;44.70
50758;DHT22;36732;47.980;11.652;2023-04-06T02:18:38;6.10;44.70
50758;DHT22;36732;47.980;11.652;2023-04-06T02:21:04;6.10;44.70
50758;DHT22;36732;47.980;11.652;2023-04-06T02:23:30;6.10;44.70
50758;DHT22;36732;47.980;11.652;2023-04-06T02:25:55;6.00;44.60
50758;DHT22;36732;47.980;11.652;2023-04-06T02:28:21;6.00;44.60
50758;DHT22;36732;47.980;11.652;2023-04-06T02:30:47;6.00;44.70
50758;DHT22;36732;47.980;11.652;2023-04-06T02:33:12;6.00;44.60
50758;DHT22;36732;47.980;11.652;2023-04-06T02:35:38;6.00;44.60
50758;DHT22;36732;47.980;11.652;2023-04-06T02:38:04;6.00;44.60
50758;DHT22;36732;47.980;11.652;2023-04-06T02:40:29;6.00;44.60
50758;DHT22;36732;47.980;11.652;2023-04-06T02:42:55;6.00;44.60
50758;DHT22;36732;47.980;11.652;2023-04-06T02:45:21;6.00;44.70
50758;DHT22;36732;47.980;11.652;2023-04-06T02:47:47;6.00;44.60
50758;DHT22;36732;47.980;11.652;2023-04-06T02:50:12;6.00;44.70
50758;DHT22;36732;47.980;11.652;2023-04-06T02:52:38;5.90;44.60
50758;DHT22;36732;47.980;11.652;2023-04-06T02:55:04;5.90;44.60
50758;DHT22;36732;47.980;11.652;2023-04-06T02:57:32;5.90;44.60
50758;DHT22;36732;47.980;11.652;2023-04-06T02:59:58;5.90;44.60
50758;DHT22;36732;47.980;11.652;2023-04-06T03:02:24;5.90;44.60
50758;DHT22;36732;47.980;11.652;2023-04-06T03:04:49;5.90;44.70
50758;DHT22;36732;47.980;11.652;2023-04-06T03:07:15;5.90;44.60
50758;DHT22;36732;47.980;11.652;2023-04-06T03:09:41;5.90;44.60
50758;DHT22;36732;47.980;11.652;2023-04-06T03:12:07;5.90;44.60
50758;DHT22;36732;47.980;11.652;2023-04-06T03:14:33;5.90;44.60
50758;DHT22;36732;47.980;11.652;2023-04-06T03:16:58;5.90;44.70
50758;DHT22;36732;47.980;11.652;2023-04-06T03:19:24;5.90;44.70
50758;DHT22;36732;47.980;11.652;2023-04-06T03:21:50;5.80;44.60
50758;DHT22;36732;47.980;11.652;2023-04-06T03:24:15;5.80;44.60
50758;DHT22;36732;47.980;11.652;2023-04-06T03:26:41;5.80;44.60
50758;DHT22;36732;47.980;11.652;2023-04-06T03:29:07;5.90;44.70
50758;DHT22;36732;47.980;11.652;2023-04-06T03:31:33;5.80;44.60
50758;DHT22;36732;47.980;11.652;2023-04-06T03:33:59;5.80;44.70
50758;DHT22;36732;47.980;11.652;2023-04-06T03:36:24;5.80;44.80
50758;DHT22;36732;47.980;11.652;2023-04-06T03:38:51;5.80;44.80
50758;DHT22;36732;47.980;11.652;2023-04-06T03:41:18;5.80;44.80
50758;DHT22;36732;47.980;11.652;2023-04-06T03:43:45;5.80;44.90
50758;DHT22;36732;47.980;11.652;2023-04-06T03:46:11;5.80;44.80
50758;DHT22;36732;47.980;11.652;2023-04-06T03:48:36;5.80;44.90
50758;DHT22;36732;47.980;11.652;2023-04-06T03:51:02;5.80;44.90
50758;DHT22;36732;47.980;11.652;2023-04-06T03:53:28;5.80;44.80
50758;DHT22;36732;47.980;11.652;2023-04-06T03:55:53;5.80;44.90
50758;DHT22;36732;47.980;11.652;2023-04-06T03:58:19;5.70;44.90
50758;DHT22;36732;47.980;11.652;2023-04-06T04:00:45;5.70;44.90
50758;DHT22;36732;47.980;11.652;2023-04-06T04:03:10;5.70;44.90
50758;DHT22;36732;47.980;11.652;2023-04-06T04:05:36;5.70;45.00
50758;DHT22;36732;47.980;11.652;2023-04-06T04:08:02;5.70;44.90
50758;DHT22;36732;47.980;11.652;2023-04-06T04:10:28;5.70;44.90
50758;DHT22;36732;47.980;11.652;2023-04-06T04:12:53;5.70;45.00
50758;DHT22;36732;47.980;11.652;2023-04-06T04:15:19;5.70;45.00
50758;DHT22;36732;47.980;11.652;2023-04-06T04:17:45;5.70;45.00
50758;DHT22;36732;47.980;11.652;2023-04-06T04:20:14;5.70;45.10
50758;DHT22;36732;47.980;11.652;2023-04-06T04:22:41;5.70;45.10
50758;DHT22;36732;47.980;11.652;2023-04-06T04:25:07;5.70;45.20
50758;DHT22;36732;47.980;11.652;2023-04-06T04:27:33;5.60;45.10
50758;DHT22;36732;47.980;11.652;2023-04-06T04:29:59;5.60;45.10
50758;DHT22;36732;47.980;11.652;2023-04-06T04:32:25;5.60;45.00
50758;DHT22;36732;47.980;11.652;2023-04-06T04:34:53;5.60;45.10
50758;DHT22;36732;47.980;11.652;2023-04-06T04:37:19;5.60;45.10
50758;DHT22;36732;47.980;11.652;2023-04-06T04:39:45;5.60;45.10
50758;DHT22;36732;47.980;11.652;2023-04-06T04:42:10;5.60;45.00
50758;DHT22;36732;47.980;11.652;2023-04-06T04:44:36;5.60;44.90
50758;DHT22;36732;47.980;11.652;2023-04-06T04:47:02;5.60;44.70
50758;DHT22;36732;47.980;11.652;2023-04-06T04:49:28;5.60;44.50
50758;DHT22;36732;47.980;11.652;2023-04-06T04:51:53;5.60;44.20
50758;DHT22;36732;47.980;11.652;2023-04-06T04:54:19;5.60;43.90
50758;DHT22;36732;47.980;11.652;2023-04-06T04:56:45;5.60;43.90
50758;DHT22;36732;47.980;11.652;2023-04-06T04:59:11;5.50;44.30
50758;DHT22;36732;47.980;11.652;2023-04-06T05:01:36;5.50;44.50
50758;DHT22;36732;47.980;11.652;2023-04-06T05:04:02;5.50;44.70
50758;DHT22;36732;47.980;11.652;2023-04-06T05:06:28;5.50;44.90
50758;DHT22;36732;47.980;11.652;2023-04-06T05:08:53;5.50;45.30
50758;DHT22;36732;47.980;11.652;2023-04-06T05:11:19;5.60;45.80
50758;DHT22;36732;47.980;11.652;2023-04-06T05:13:45;5.60;46.10
50758;DHT22;36732;47.980;11.652;2023-04-06T05:16:10;5.70;46.20
50758;DHT22;36732;47.980;11.652;2023-04-06T05:18:36;5.80;46.30
50758;DHT22;36732;47.980;11.652;2023-04-06T05:21:02;6.00;46.60
50758;DHT22;36732;47.980;11.652;2023-04-06T05:23:28;6.10;46.80
50758;DHT22;36732;47.980;11.652;2023-04-06T05:25:54;6.30;46.60
50758;DHT22;36732;47.980;11.652;2023-04-06T05:28:19;6.40;46.30
50758;DHT22;36732;47.980;11.652;2023-04-06T05:30:45;6.50;46.00
50758;DHT22;36732;47.980;11.652;2023-04-06T05:33:11;6.50;45.70
50758;DHT22;36732;47.980;11.652;2023-04-06T05:35:37;6.60;45.60
50758;DHT22;36732;47.980;11.652;2023-04-06T05:38:03;6.60;45.50
50758;DHT22;36732;47.980;11.652;2023-04-06T05:40:28;6.60;45.50
50758;DHT22;36732;47.980;11.652;2023-04-06T05:42:54;6.50;45.50
50758;DHT22;36732;47.980;11.652;2023-04-06T05:45:20;6.50;45.50
50758;DHT22;36732;47.980;11.652;2023-04-06T05:47:46;6.50;45.70
50758;DHT22;36732;47.980;11.652;2023-04-06T05:50:14;6.50;45.70
50758;DHT22;36732;47.980;11.652;2023-04-06T05:52:40;6.50;45.80
50758;DHT22;36732;47.980;11.652;2023-04-06T05:55:09;6.40;45.80
50758;DHT22;36732;47.980;11.652;2023-04-06T05:57:35;6.40;45.90
50758;DHT22;36732;47.980;11.652;2023-04-06T06:00:01;6.40;46.10
50758;DHT22;36732;47.980;11.652;2023-04-06T06:02:30;6.40;46.20
50758;DHT22;36732;47.980;11.652;2023-04-06T06:04:56;6.40;46.20
50758;DHT22;36732;47.980;11.652;2023-04-06T06:07:23;6.40;46.50
50758;DHT22;36732;47.980;11.652;2023-04-06T06:09:49;6.50;46.70
50758;DHT22;36732;47.980;11.652;2023-04-06T06:12:15;6.50;46.90
50758;DHT22;36732;47.980;11.652;2023-04-06T06:14:40;6.50;47.00
50758;DHT22;36732;47.980;11.652;2023-04-06T06:17:06;6.60;47.00
50758;DHT22;36732;47.980;11.652;2023-04-06T06:19:32;6.70;47.00
50758;DHT22;36732;47.980;11.652;2023-04-06T06:21:57;6.70;46.90
50758;DHT22;36732;47.980;11.652;2023-04-06T06:24:25;6.70;47.00
50758;DHT22;36732;47.980;11.652;2023-04-06T06:26:50;6.80;47.00
50758;DHT22;36732;47.980;11.652;2023-04-06T06:29:16;6.80;46.90
50758;DHT22;36732;47.980;11.652;2023-04-06T06:31:42;6.80;46.80
50758;DHT22;36732;47.980;11.652;2023-04-06T06:34:07;6.90;46.80
50758;DHT22;36732;47.980;11.652;2023-04-06T06:36:33;6.90;46.70
50758;DHT22;36732;47.980;11.652;2023-04-06T06:39:00;6.90;46.60
50758;DHT22;36732;47.980;11.652;2023-04-06T06:41:28;6.90;46.60
50758;DHT22;36732;47.980;11.652;2023-04-06T06:43:54;6.90;46.60
50758;DHT22;36732;47.980;11.652;2023-04-06T06:46:20;6.90;46.50
50758;DHT22;36732;47.980;11.652;2023-04-06T06:48:46;7.00;46.60
50758;DHT22;36732;47.980;11.652;2023-04-06T06:51:12;7.00;46.70
50758;DHT22;36732;47.980;11.652;2023-04-06T06:53:37;7.00;46.50
50758;DHT22;36732;47.980;11.652;2023-04-06T06:56:03;7.00;46.60
50758;DHT22;36732;47.980;11.652;2023-04-06T06:58:29;7.00;46.60
50758;DHT22;36732;47.980;11.652;2023-04-06T07:00:58;7.00;46.60
50758;DHT22;36732;47.980;11.652;2023-04-06T07:03:24;7.00;46.70
50758;DHT22;36732;47.980;11.652;2023-04-06T07:05:51;7.00;46.70
50758;DHT22;36732;47.980;11.652;2023-04-06T07:08:22;7.00;46.70
50758;DHT22;36732;47.980;11.652;2023-04-06T07:10:50;7.00;46.80
50758;DHT22;36732;47.980;11.652;2023-04-06T07:13:18;7.10;46.80
50758;DHT22;36732;47.980;11.652;2023-04-06T07:15:48;7.10;46.90
50758;DHT22;36732;47.980;11.652;2023-04-06T07:18:15;7.10;46.90
50758;DHT22;36732;47.980;11.652;2023-04-06T07:20:41;7.10;46.90
50758;DHT22;36732;47.980;11.652;2023-04-06T07:23:07;7.10;47.10
50758;DHT22;36732;47.980;11.652;2023-04-06T07:25:33;7.10;47.20
50758;DHT22;36732;47.980;11.652;2023-04-06T07:27:58;7.10;47.30
50758;DHT22;36732;47.980;11.652;2023-04-06T07:30:24;7.10;47.40
50758;DHT22;36732;47.980;11.652;2023-04-06T07:32:54;7.10;47.30
50758;DHT22;36732;47.980;11.652;2023-04-06T07:35:21;7.10;47.30
50758;DHT22;36732;47.980;11.652;2023-04-06T07:37:50;7.10;47.30
50758;DHT22;36732;47.980;11.652;2023-04-06T07:40:16;7.10;47.30
50758;DHT22;36732;47.980;11.652;2023-04-06T07:42:41;7.20;47.40
50758;DHT22;36732;47.980;11.652;2023-04-06T07:45:07;7.20;47.40
50758;DHT22;36732;47.980;11.652;2023-04-06T07:47:33;7.20;47.30
50758;DHT22;36732;47.980;11.652;2023-04-06T07:49:59;7.20;47.30
50758;DHT22;36732;47.980;11.652;2023-04-06T07:52:25;7.20;47.10
50758;DHT22;36732;47.980;11.652;2023-04-06T07:54:50;7.30;47.30
50758;DHT22;36732;47.980;11.652;2023-04-06T07:57:16;7.30;46.80
50758;DHT22;36732;47.980;11.652;2023-04-06T07:59:43;7.30;46.70
50758;DHT22;36732;47.980;11.652;2023-04-06T08:02:09;7.30;46.50
50758;DHT22;36732;47.980;11.652;2023-04-06T08:04:35;7.30;46.30
50758;DHT22;36732;47.980;11.652;2023-04-06T08:07:01;7.30;45.90
50758;DHT22;36732;47.980;11.652;2023-04-06T08:09:27;7.40;46.10
50758;DHT22;36732;47.980;11.652;2023-04-06T08:11:53;7.40;45.90
50758;DHT22;36732;47.980;11.652;2023-04-06T08:14:19;7.40;45.90
50758;DHT22;36732;47.980;11.652;2023-04-06T08:16:45;7.40;45.70
50758;DHT22;36732;47.980;11.652;2023-04-06T08:19:11;7.40;45.70
50758;DHT22;36732;47.980;11.652;2023-04-06T08:21:37;7.50;45.40
50758;DHT22;36732;47.980;11.652;2023-04-06T08:24:04;7.50;45.00
50758;DHT22;36732;47.980;11.652;2023-04-06T08:26:31;7.50;45.00
50758;DHT22;36732;47.980;11.652;2023-04-06T08:28:57;7.50;45.00
50758;DHT22;36732;47.980;11.652;2023-04-06T08:31:22;7.50;45.00
50758;DHT22;36732;47.980;11.652;2023-04-06T08:33:48;7.60;45.10
50758;DHT22;36732;47.980;11.652;2023-04-06T08:36:14;7.60;45.50
50758;DHT22;36732;47.980;11.652;2023-04-06T08:38:41;7.60;44.80
50758;DHT22;36732;47.980;11.652;2023-04-06T08:41:12;7.60;44.80
50758;DHT22;36732;47.980;11.652;2023-04-06T08:43:54;7.60;44.80
50758;DHT22;36732;47.980;11.652;2023-04-06T08:46:24;7.60;44.50
50758;DHT22;36732;47.980;11.652;2023-04-06T08:49:02;7.60;44.50
50758;DHT22;36732;47.980;11.652;2023-04-06T08:51:29;7.70;44.30
50758;DHT22;36732;47.980;11.652;2023-04-06T08:53:59;7.70;44.50
50758;DHT22;36732;47.980;11.652;2023-04-06T08:56:27;7.70;44.00
50758;DHT22;36732;47.980;11.652;2023-04-06T08:58:54;7.70;44.10
50758;DHT22;36732;47.980;11.652;2023-04-06T09:01:26;7.70;44.20
50758;DHT22;36732;47.980;11.652;2023-04-06T09:03:55;7.70;44.10
50758;DHT22;36732;47.980;11.652;2023-04-06T09:06:22;7.80;44.20
50758;DHT22;36732;47.980;11.652;2023-04-06T09:08:47;7.80;44.20
50758;DHT22;36732;47.980;11.652;2023-04-06T09:11:15;7.80;44.10
50758;DHT22;36732;47.980;11.652;2023-04-06T09:13:51;7.80;44.00
50758;DHT22;36732;47.980;11.652;2023-04-06T09:16:19;7.80;43.50
50758;DHT22;36732;47.980;11.652;2023-04-06T09:18:46;7.90;43.50
50758;DHT22;36732;47.980;11.652;2023-04-06T09:21:12;7.90;43.50
50758;DHT22;36732;47.980;11.652;2023-04-06T09:23:38;7.90;43.30
50758;DHT22;36732;47.980;11.652;2023-04-06T09:26:13;7.90;43.40
50758;DHT22;36732;47.980;11.652;2023-04-06T09:28:46;7.90;43.30
50758;DHT22;36732;47.980;11.652;2023-04-06T09:31:13;8.00;43.70
50758;DHT22;36732;47.980;11.652;2023-04-06T09:33:42;8.00;43.80
50758;DHT22;36732;47.980;11.652;2023-04-06T09:36:08;8.00;43.40
50758;DHT22;36732;47.980;11.652;2023-04-06T09:38:37;8.00;43.40
50758;DHT22;36732;47.980;11.652;2023-04-06T09:41:03;8.00;43.30
50758;DHT22;36732;47.980;11.652;2023-04-06T09:43:30;8.00;43.40
50758;DHT22;36732;47.980;11.652;2023-04-06T09:45:56;8.10;43.50
50758;DHT22;36732;47.980;11.652;2023-04-06T09:48:24;8.10;43.60
50758;DHT22;36732;47.980;11.652;2023-04-06T09:50:54;8.10;43.90
50758;DHT22;36732;47.980;11.652;2023-04-06T09:53:26;8.10;44.10
50758;DHT22;36732;47.980;11.652;2023-04-06T09:55:57;8.10;44.20
50758;DHT22;36732;47.980;11.652;2023-04-06T09:58:23;8.20;44.00
50758;DHT22;36732;47.980;11.652;2023-04-06T10:01:07;8.20;44.70
50758;DHT22;36732;47.980;11.652;2023-04-06T10:06:18;8.20;43.40
50758;DHT22;36732;47.980;11.652;2023-04-06T10:08:50;8.30;43.70
50758;DHT22;36732;47.980;11.652;2023-04-06T10:11:17;8.30;43.50
50758;DHT22;36732;47.980;11.652;2023-04-06T10:13:45;8.30;43.50
50758;DHT22;36732;47.980;11.652;2023-04-06T10:16:15;8.40;43.60
50758;DHT22;36732;47.980;11.652;2023-04-06T10:18:46;8.40;43.70
50758;DHT22;36732;47.980;11.652;2023-04-06T10:21:17;8.40;43.70
50758;DHT22;36732;47.980;11.652;2023-04-06T10:23:48;8.40;43.60
50758;DHT22;36732;47.980;11.652;2023-04-06T10:26:20;8.40;42.90
50758;DHT22;36732;47.980;11.652;2023-04-06T10:28:47;8.50;43.00
50758;DHT22;36732;47.980;11.652;2023-04-06T10:31:14;8.50;43.40
50758;DHT22;36732;47.980;11.652;2023-04-06T10:33:40;8.50;43.60
50758;DHT22;36732;47.980;11.652;2023-04-06T10:36:14;8.50;43.60
50758;DHT22;36732;47.980;11.652;2023-04-06T10:38:41;8.50;43.40
50758;DHT22;36732;47.980;11.652;2023-04-06T10:41:11;8.50;43.80
50758;DHT22;36732;47.980;11.652;2023-04-06T10:43:39;8.60;43.80
50758;DHT22;36732;47.980;11.652;2023-04-06T10:46:07;8.60;43.90
50758;DHT22;36732;47.980;11.652;2023-04-06T10:51:13;8.60;43.60
50758;DHT22;36732;47.980;11.652;2023-04-06T10:53:42;8.60;43.30
50758;DHT22;36732;47.980;11.652;2023-04-06T10:56:16;8.70;43.00
50758;DHT22;36732;47.980;11.652;2023-04-06T10:58:46;8.70;42.60
50758;DHT22;36732;47.980;11.652;2023-04-06T11:01:19;8.70;42.30
50758;DHT22;36732;47.980;11.652;2023-04-06T11:03:50;8.70;42.20
50758;DHT22;36732;47.980;11.652;2023-04-06T11:06:27;8.70;42.10
50758;DHT22;36732;47.980;11.652;2023-04-06T11:08:57;8.70;41.90
50758;DHT22;36732;47.980;11.652;2023-04-06T11:11:24;8.80;42.20
50758;DHT22;36732;47.980;11.652;2023-04-06T11:13:56;8.80;42.20
50758;DHT22;36732;47.980;11.652;2023-04-06T11:16:25;8.80;41.90
50758;DHT22;36732;47.980;11.652;2023-04-06T11:19:00;8.80;42.10
50758;DHT22;36732;47.980;11.652;2023-04-06T11:21:33;8.80;42.10
50758;DHT22;36732;47.980;11.652;2023-04-06T11:24:18;8.80;42.20
50758;DHT22;36732;47.980;11.652;2023-04-06T11:26:55;8.80;41.90
50758;DHT22;36732;47.980;11.652;2023-04-06T11:29:30;8.80;42.50
50758;DHT22;36732;47.980;11.652;2023-04-06T11:32:01;8.90;42.40
50758;DHT22;36732;47.980;11.652;2023-04-06T11:34:29;8.90;42.50
50758;DHT22;36732;47.980;11.652;2023-04-06T11:36:57;8.90;42.70
50758;DHT22;36732;47.980;11.652;2023-04-06T11:39:26;8.90;42.70
50758;DHT22;36732;47.980;11.652;2023-04-06T11:41:54;8.90;42.30
50758;DHT22;36732;47.980;11.652;2023-04-06T11:44:32;9.00;42.40
50758;DHT22;36732;47.980;11.652;2023-04-06T11:47:01;9.00;42.60
50758;DHT22;36732;47.980;11.652;2023-04-06T11:49:28;9.00;42.80
50758;DHT22;36732;47.980;11.652;2023-04-06T11:51:55;9.10;42.80
50758;DHT22;36732;47.980;11.652;2023-04-06T11:54:35;9.10;42.40
50758;DHT22;36732;47.980;11.652;2023-04-06T11:57:04;9.10;41.90
50758;DHT22;36732;47.980;11.652;2023-04-06T11:59:34;9.20;42.10
50758;DHT22;36732;47.980;11.652;2023-04-06T12:02:01;9.20;42.20
50758;DHT22;36732;47.980;11.652;2023-04-06T12:04:28;9.20;42.00
50758;DHT22;36732;47.980;11.652;2023-04-06T12:06:53;9.20;41.90
50758;DHT22;36732;47.980;11.652;2023-04-06T12:09:19;9.30;42.00
50758;DHT22;36732;47.980;11.652;2023-04-06T12:11:46;9.30;42.00
50758;DHT22;36732;47.980;11.652;2023-04-06T12:14:12;9.30;41.40
50758;DHT22;36732;47.980;11.652;2023-04-06T12:16:38;9.40;41.40
50758;DHT22;36732;47.980;11.652;2023-04-06T12:19:04;9.30;41.40
50758;DHT22;36732;47.980;11.652;2023-04-06T12:21:31;9.40;41.50
50758;DHT22;36732;47.980;11.652;2023-04-06T12:23:57;9.40;41.60
50758;DHT22;36732;47.980;11.652;2023-04-06T12:26:24;9.40;41.70
50758;DHT22;36732;47.980;11.652;2023-04-06T12:28:50;9.40;41.60
50758;DHT22;36732;47.980;11.652;2023-04-06T12:31:21;9.40;41.60
50758;DHT22;36732;47.980;11.652;2023-04-06T12:33:48;9.40;41.80
50758;DHT22;36732;47.980;11.652;2023-04-06T12:36:16;9.40;41.60
50758;DHT22;36732;47.980;11.652;2023-04-06T12:38:48;9.40;41.60
50758;DHT22;36732;47.980;11.652;2023-04-06T12:41:15;9.40;41.80
50758;DHT22;36732;47.980;11.652;2023-04-06T12:43:41;9.40;41.80
50758;DHT22;36732;47.980;11.652;2023-04-06T12:46:07;9.40;41.80
50758;DHT22;36732;47.980;11.652;2023-04-06T12:48:33;9.40;41.90
50758;DHT22;36732;47.980;11.652;2023-04-06T12:51:01;9.40;42.00
50758;DHT22;36732;47.980;11.652;2023-04-06T12:53:28;9.40;41.80
50758;DHT22;36732;47.980;11.652;2023-04-06T12:55:54;9.40;42.00
50758;DHT22;36732;47.980;11.652;2023-04-06T12:58:21;9.40;41.90
50758;DHT22;36732;47.980;11.652;2023-04-06T13:00:48;9.40;41.80
50758;DHT22;36732;47.980;11.652;2023-04-06T13:03:15;9.40;41.50
50758;DHT22;36732;47.980;11.652;2023-04-06T13:05:48;9.40;41.50
50758;DHT22;36732;47.980;11.652;2023-04-06T13:08:18;9.40;41.60
50758;DHT22;36732;47.980;11.652;2023-04-06T13:10:50;9.50;41.80
50758;DHT22;36732;47.980;11.652;2023-04-06T13:13:18;9.50;41.80
50758;DHT22;36732;47.980;11.652;2023-04-06T13:15:54;9.50;42.10
50758;DHT22;36732;47.980;11.652;2023-04-06T13:18:21;9.50;42.30
50758;DHT22;36732;47.980;11.652;2023-04-06T13:20:48;9.50;42.20
50758;DHT22;36732;47.980;11.652;2023-04-06T13:23:14;9.50;42.10
50758;DHT22;36732;47.980;11.652;2023-04-06T13:25:40;9.50;42.10
50758;DHT22;36732;47.980;11.652;2023-04-06T13:28:06;9.50;42.20
50758;DHT22;36732;47.980;11.652;2023-04-06T13:30:33;9.50;42.40
50758;DHT22;36732;47.980;11.652;2023-04-06T13:32:58;9.50;42.30
50758;DHT22;36732;47.980;11.652;2023-04-06T13:35:24;9.50;42.30
50758;DHT22;36732;47.980;11.652;2023-04-06T13:37:50;9.50;42.20
50758;DHT22;36732;47.980;11.652;2023-04-06T13:40:17;9.50;42.20
50758;DHT22;36732;47.980;11.652;2023-04-06T13:42:43;9.50;42.30
50758;DHT22;36732;47.980;11.652;2023-04-06T13:45:10;9.60;42.80
50758;DHT22;36732;47.980;11.652;2023-04-06T13:47:36;9.60;43.10
50758;DHT22;36732;47.980;11.652;2023-04-06T13:50:02;9.60;43.00
50758;DHT22;36732;47.980;11.652;2023-04-06T13:52:29;9.60;42.60
50758;DHT22;36732;47.980;11.652;2023-04-06T13:54:55;9.70;42.80
50758;DHT22;36732;47.980;11.652;2023-04-06T13:57:21;9.70;43.00
50758;DHT22;36732;47.980;11.652;2023-04-06T13:59:47;9.70;43.00
50758;DHT22;36732;47.980;11.652;2023-04-06T14:02:15;9.70;42.50
50758;DHT22;36732;47.980;11.652;2023-04-06T14:04:40;9.70;41.90
50758;DHT22;36732;47.980;11.652;2023-04-06T14:07:06;9.80;42.10
50758;DHT22;36732;47.980;11.652;2023-04-06T14:09:33;9.80;42.30
50758;DHT22;36732;47.980;11.652;2023-04-06T14:11:59;9.80;42.30
50758;DHT22;36732;47.980;11.652;2023-04-06T14:14:25;9.80;42.20
50758;DHT22;36732;47.980;11.652;2023-04-06T14:16:51;9.80;42.30
50758;DHT22;36732;47.980;11.652;2023-04-06T14:19:17;9.80;42.60
50758;DHT22;36732;47.980;11.652;2023-04-06T14:21:44;9.90;42.80
50758;DHT22;36732;47.980;11.652;2023-04-06T14:24:10;9.90;43.10
50758;DHT22;36732;47.980;11.652;2023-04-06T14:26:37;9.90;44.40
50758;DHT22;36732;47.980;11.652;2023-04-06T14:29:04;9.90;44.40
50758;DHT22;36732;47.980;11.652;2023-04-06T14:31:30;9.90;44.40
50758;DHT22;36732;47.980;11.652;2023-04-06T14:33:56;9.90;44.30
50758;DHT22;36732;47.980;11.652;2023-04-06T14:36:22;9.90;44.20
50758;DHT22;36732;47.980;11.652;2023-04-06T14:38:49;10.00;44.40
50758;DHT22;36732;47.980;11.652;2023-04-06T14:41:19;9.90;44.50
50758;DHT22;36732;47.980;11.652;2023-04-06T14:43:48;10.00;44.60
50758;DHT22;36732;47.980;11.652;2023-04-06T14:46:14;10.00;44.70
50758;DHT22;36732;47.980;11.652;2023-04-06T14:48:43;10.00;44.60
50758;DHT22;36732;47.980;11.652;2023-04-06T14:51:11;10.00;44.20
50758;DHT22;36732;47.980;11.652;2023-04-06T14:53:37;10.00;44.10
50758;DHT22;36732;47.980;11.652;2023-04-06T14:56:03;10.00;43.60
50758;DHT22;36732;47.980;11.652;2023-04-06T14:58:29;10.00;43.30
50758;DHT22;36732;47.980;11.652;2023-04-06T15:00:56;10.00;43.30
50758;DHT22;36732;47.980;11.652;2023-04-06T15:03:26;10.00;43.40
50758;DHT22;36732;47.980;11.652;2023-04-06T15:05:56;10.00;43.40
50758;DHT22;36732;47.980;11.652;2023-04-06T15:11:44;10.10;43.60
50758;DHT22;36732;47.980;11.652;2023-04-06T15:14:09;10.10;43.90
50758;DHT22;36732;47.980;11.652;2023-04-06T15:16:35;10.10;43.10
50758;DHT22;36732;47.980;11.652;2023-04-06T15:19:01;10.10;43.20
50758;DHT22;36732;47.980;11.652;2023-04-06T15:21:27;10.10;43.20
50758;DHT22;36732;47.980;11.652;2023-04-06T15:23:53;10.10;43.40
50758;DHT22;36732;47.980;11.652;2023-04-06T15:26:20;10.10;44.00
50758;DHT22;36732;47.980;11.652;2023-04-06T15:28:46;10.10;44.40
50758;DHT22;36732;47.980;11.652;2023-04-06T15:31:15;10.10;43.90
50758;DHT22;36732;47.980;11.652;2023-04-06T15:33:42;10.10;43.80
50758;DHT22;36732;47.980;11.652;2023-04-06T15:36:23;10.10;42.70
50758;DHT22;36732;47.980;11.652;2023-04-06T15:38:59;10.20;41.80